sensor_id;sensor_type;location;lat;lon;timestamp;P1;durP1;ratioP1;P2;durP2;ratioP2
62268;SDS011;56517;51.634;5.566;2022-08-01T00:04:02;18.77;;;11.88;;
62268;SDS011;56517;51.634;5.566;2022-08-01T00:09:02;26.08;;;13.20;;
62268;SDS011;56517;51.634;5.566;2022-08-01T00:14:04;20.15;;;12.25;;
62268;SDS011;56517;51.634;5.566;2022-08-01T00:19:05;27.77;;;13.68;;
62268;SDS011;56517;51.634;5.566;2022-08-01T00:24:06;26.10;;;12.68;;
62268;SDS011;56517;51.634;5.566;2022-08-01T00:29:08;22.23;;;12.60;;
62268;SDS011;56517;51.634;5.566;2022-08-01T00:34:08;23.63;;;12.55;;
62268;SDS011;56517;51.634;5.566;2022-08-01T00:39:09;28.25;;;13.48;;
62268;SDS011;56517;51.634;5.566;2022-08-01T00:44:11;31.33;;;14.32;;
62268;SDS011;56517;51.634;5.566;2022-08-01T00:49:11;27.40;;;13.57;;
62268;SDS011;56517;51.634;5.566;2022-08-01T00:54:12;25.30;;;14.32;;
62268;SDS011;56517;51.634;5.566;2022-08-01T00:59:14;27.55;;;15.95;;
62268;SDS011;56517;51.634;5.566;2022-08-01T01:04:17;24.05;;;14.30;;
62268;SDS011;56517;51.634;5.566;2022-08-01T01:09:21;28.75;;;14.55;;
62268;SDS011;56517;51.634;5.566;2022-08-01T01:14:27;24.85;;;14.43;;
62268;SDS011;56517;51.634;5.566;2022-08-01T01:19:30;22.95;;;13.35;;
62268;SDS011;56517;51.634;5.566;2022-08-01T01:24:33;19.98;;;11.77;;
62268;SDS011;56517;51.634;5.566;2022-08-01T01:29:41;23.48;;;12.48;;
62268;SDS011;56517;51.634;5.566;2022-08-01T01:34:42;21.25;;;11.10;;
62268;SDS011;56517;51.634;5.566;2022-08-01T01:39:44;18.15;;;11.57;;
62268;SDS011;56517;51.634;5.566;2022-08-01T01:44:46;20.42;;;11.07;;
62268;SDS011;56517;51.634;5.566;2022-08-01T01:49:48;21.27;;;12.70;;
62268;SDS011;56517;51.634;5.566;2022-08-01T01:54:50;23.23;;;11.98;;
62268;SDS011;56517;51.634;5.566;2022-08-01T01:59:53;21.00;;;10.73;;
62268;SDS011;56517;51.634;5.566;2022-08-01T02:04:55;22.15;;;12.98;;
62268;SDS011;56517;51.634;5.566;2022-08-01T02:09:56;19.30;;;10.57;;
62268;SDS011;56517;51.634;5.566;2022-08-01T02:14:58;20.38;;;10.52;;
62268;SDS011;56517;51.634;5.566;2022-08-01T02:20:00;21.98;;;10.55;;
62268;SDS011;56517;51.634;5.566;2022-08-01T02:25:01;17.38;;;9.88;;
62268;SDS011;56517;51.634;5.566;2022-08-01T02:30:05;22.73;;;10.60;;
62268;SDS011;56517;51.634;5.566;2022-08-01T02:35:06;18.95;;;10.05;;
62268;SDS011;56517;51.634;5.566;2022-08-01T02:40:08;17.73;;;10.00;;
62268;SDS011;56517;51.634;5.566;2022-08-01T02:45:11;22.63;;;10.93;;
62268;SDS011;56517;51.634;5.566;2022-08-01T02:50:12;18.33;;;10.30;;
62268;SDS011;56517;51.634;5.566;2022-08-01T02:55:14;21.67;;;11.25;;
62268;SDS011;56517;51.634;5.566;2022-08-01T03:00:16;18.92;;;10.35;;
62268;SDS011;56517;51.634;5.566;2022-08-01T03:05:17;20.42;;;11.57;;
62268;SDS011;56517;51.634;5.566;2022-08-01T03:10:18;18.05;;;10.95;;
62268;SDS011;56517;51.634;5.566;2022-08-01T03:15:21;20.92;;;10.70;;
62268;SDS011;56517;51.634;5.566;2022-08-01T03:20:21;21.45;;;11.10;;
62268;SDS011;56517;51.634;5.566;2022-08-01T03:25:23;21.55;;;11.52;;
62268;SDS011;56517;51.634;5.566;2022-08-01T03:30:26;21.15;;;11.88;;
62268;SDS011;56517;51.634;5.566;2022-08-01T03:35:28;23.05;;;10.82;;
62268;SDS011;56517;51.634;5.566;2022-08-01T03:40:30;21.95;;;10.82;;
62268;SDS011;56517;51.634;5.566;2022-08-01T03:45:34;19.77;;;10.38;;
62268;SDS011;56517;51.634;5.566;2022-08-01T03:50:35;22.10;;;11.52;;
62268;SDS011;56517;51.634;5.566;2022-08-01T03:55:37;25.20;;;11.45;;
62268;SDS011;56517;51.634;5.566;2022-08-01T04:00:40;20.25;;;11.20;;
62268;SDS011;56517;51.634;5.566;2022-08-01T04:05:41;20.05;;;11.00;;
62268;SDS011;56517;51.634;5.566;2022-08-01T04:10:42;22.00;;;11.30;;
62268;SDS011;56517;51.634;5.566;2022-08-01T04:15:44;21.60;;;10.93;;
62268;SDS011;56517;51.634;5.566;2022-08-01T04:20:45;22.67;;;10.48;;
62268;SDS011;56517;51.634;5.566;2022-08-01T04:25:46;24.67;;;10.90;;
62268;SDS011;56517;51.634;5.566;2022-08-01T04:30:52;22.50;;;10.77;;
62268;SDS011;56517;51.634;5.566;2022-08-01T04:35:54;24.33;;;11.77;;
62268;SDS011;56517;51.634;5.566;2022-08-01T04:40:56;25.13;;;11.63;;
62268;SDS011;56517;51.634;5.566;2022-08-01T04:45:59;21.52;;;10.95;;
62268;SDS011;56517;51.634;5.566;2022-08-01T04:51:02;20.23;;;11.23;;
62268;SDS011;56517;51.634;5.566;2022-08-01T04:56:03;28.10;;;11.30;;
62268;SDS011;56517;51.634;5.566;2022-08-01T05:01:05;19.55;;;10.02;;
62268;SDS011;56517;51.634;5.566;2022-08-01T05:06:05;15.90;;;9.23;;
62268;SDS011;56517;51.634;5.566;2022-08-01T05:11:06;17.98;;;9.70;;
62268;SDS011;56517;51.634;5.566;2022-08-01T05:16:08;19.70;;;10.35;;
62268;SDS011;56517;51.634;5.566;2022-08-01T05:21:08;20.25;;;10.93;;
62268;SDS011;56517;51.634;5.566;2022-08-01T05:26:09;23.17;;;11.63;;
62268;SDS011;56517;51.634;5.566;2022-08-01T05:31:12;22.90;;;11.70;;
62268;SDS011;56517;51.634;5.566;2022-08-01T05:36:12;19.25;;;11.05;;
62268;SDS011;56517;51.634;5.566;2022-08-01T05:41:13;21.17;;;10.68;;
62268;SDS011;56517;51.634;5.566;2022-08-01T05:46:15;20.90;;;11.20;;
62268;SDS011;56517;51.634;5.566;2022-08-01T05:51:15;21.98;;;10.40;;
62268;SDS011;56517;51.634;5.566;2022-08-01T05:56:16;20.02;;;11.10;;
62268;SDS011;56517;51.634;5.566;2022-08-01T06:01:18;18.58;;;9.77;;
62268;SDS011;56517;51.634;5.566;2022-08-01T06:06:19;20.92;;;10.07;;
62268;SDS011;56517;51.634;5.566;2022-08-01T06:11:19;16.15;;;9.93;;
62268;SDS011;56517;51.634;5.566;2022-08-01T06:16:21;15.43;;;9.50;;
62268;SDS011;56517;51.634;5.566;2022-08-01T06:21:22;15.73;;;10.07;;
62268;SDS011;56517;51.634;5.566;2022-08-01T06:26:22;15.88;;;9.38;;
62268;SDS011;56517;51.634;5.566;2022-08-01T06:31:24;13.43;;;8.73;;
62268;SDS011;56517;51.634;5.566;2022-08-01T06:36:25;13.68;;;8.13;;
62268;SDS011;56517;51.634;5.566;2022-08-01T06:41:25;11.95;;;8.13;;
62268;SDS011;56517;51.634;5.566;2022-08-01T06:46:27;10.48;;;6.90;;
62268;SDS011;56517;51.634;5.566;2022-08-01T06:51:28;16.42;;;8.48;;
62268;SDS011;56517;51.634;5.566;2022-08-01T06:56:28;13.82;;;7.55;;
62268;SDS011;56517;51.634;5.566;2022-08-01T07:01:30;9.55;;;7.60;;
62268;SDS011;56517;51.634;5.566;2022-08-01T07:06:31;14.18;;;7.78;;
62268;SDS011;56517;51.634;5.566;2022-08-01T07:11:32;10.15;;;7.25;;
62268;SDS011;56517;51.634;5.566;2022-08-01T07:16:33;11.20;;;6.80;;
62268;SDS011;56517;51.634;5.566;2022-08-01T07:21:34;12.30;;;7.68;;
62268;SDS011;56517;51.634;5.566;2022-08-01T07:26:35;12.82;;;6.82;;
62268;SDS011;56517;51.634;5.566;2022-08-01T07:31:37;11.35;;;7.35;;
62268;SDS011;56517;51.634;5.566;2022-08-01T07:36:37;10.38;;;7.70;;
62268;SDS011;56517;51.634;5.566;2022-08-01T07:41:38;13.32;;;8.48;;
62268;SDS011;56517;51.634;5.566;2022-08-01T07:46:40;12.15;;;8.60;;
62268;SDS011;56517;51.634;5.566;2022-08-01T07:51:40;10.05;;;7.45;;
62268;SDS011;56517;51.634;5.566;2022-08-01T07:56:41;12.80;;;7.90;;
62268;SDS011;56517;51.634;5.566;2022-08-01T08:01:43;9.95;;;6.32;;
62268;SDS011;56517;51.634;5.566;2022-08-01T08:06:43;10.45;;;6.75;;
62268;SDS011;56517;51.634;5.566;2022-08-01T08:11:44;10.15;;;7.32;;
62268;SDS011;56517;51.634;5.566;2022-08-01T08:16:46;10.63;;;7.53;;
62268;SDS011;56517;51.634;5.566;2022-08-01T08:21:47;12.90;;;8.52;;
62268;SDS011;56517;51.634;5.566;2022-08-01T08:26:48;10.77;;;7.95;;
62268;SDS011;56517;51.634;5.566;2022-08-01T08:31:51;11.13;;;8.63;;
62268;SDS011;56517;51.634;5.566;2022-08-01T08:36:52;9.18;;;7.00;;
62268;SDS011;56517;51.634;5.566;2022-08-01T08:41:53;7.40;;;5.93;;
62268;SDS011;56517;51.634;5.566;2022-08-01T08:46:56;7.93;;;5.45;;
62268;SDS011;56517;51.634;5.566;2022-08-01T08:51:58;7.43;;;6.20;;
62268;SDS011;56517;51.634;5.566;2022-08-01T08:57:00;7.72;;;6.50;;
62268;SDS011;56517;51.634;5.566;2022-08-01T09:02:02;6.68;;;6.00;;
62268;SDS011;56517;51.634;5.566;2022-08-01T09:07:03;7.03;;;5.00;;
62268;SDS011;56517;51.634;5.566;2022-08-01T09:12:04;7.22;;;5.45;;
62268;SDS011;56517;51.634;5.566;2022-08-01T09:17:07;5.97;;;5.38;;
62268;SDS011;56517;51.634;5.566;2022-08-01T09:22:09;6.88;;;5.20;;
62268;SDS011;56517;51.634;5.566;2022-08-01T09:27:16;5.22;;;4.68;;
62268;SDS011;56517;51.634;5.566;2022-08-01T09:32:18;6.30;;;4.65;;
62268;SDS011;56517;51.634;5.566;2022-08-01T09:37:19;7.07;;;5.50;;
62268;SDS011;56517;51.634;5.566;2022-08-01T09:42:29;5.80;;;5.20;;
62268;SDS011;56517;51.634;5.566;2022-08-01T09:47:37;7.80;;;6.10;;
62268;SDS011;56517;51.634;5.566;2022-08-01T09:52:38;5.25;;;4.75;;
62268;SDS011;56517;51.634;5.566;2022-08-01T09:57:38;5.05;;;4.55;;
62268;SDS011;56517;51.634;5.566;2022-08-01T10:02:40;5.78;;;4.65;;
62268;SDS011;56517;51.634;5.566;2022-08-01T10:07:54;6.35;;;4.65;;
62268;SDS011;56517;51.634;5.566;2022-08-01T10:12:56;5.32;;;4.82;;
62268;SDS011;56517;51.634;5.566;2022-08-01T10:18:00;6.97;;;5.15;;
62268;SDS011;56517;51.634;5.566;2022-08-01T10:23:02;7.80;;;4.68;;
62268;SDS011;56517;51.634;5.566;2022-08-01T10:28:05;5.90;;;4.60;;
62268;SDS011;56517;51.634;5.566;2022-08-01T10:33:11;7.55;;;5.72;;
62268;SDS011;56517;51.634;5.566;2022-08-01T10:38:12;7.72;;;5.28;;
62268;SDS011;56517;51.634;5.566;2022-08-01T10:43:13;5.32;;;4.57;;
62268;SDS011;56517;51.634;5.566;2022-08-01T10:48:18;6.00;;;4.53;;
62268;SDS011;56517;51.634;5.566;2022-08-01T10:53:21;4.70;;;4.30;;
62268;SDS011;56517;51.634;5.566;2022-08-01T10:58:22;5.22;;;4.68;;
62268;SDS011;56517;51.634;5.566;2022-08-01T11:03:32;5.05;;;4.00;;
62268;SDS011;56517;51.634;5.566;2022-08-01T11:08:35;4.32;;;3.90;;
62268;SDS011;56517;51.634;5.566;2022-08-01T11:18:58;5.53;;;4.28;;
62268;SDS011;56517;51.634;5.566;2022-08-01T11:23:58;9.32;;;4.82;;
62268;SDS011;56517;51.634;5.566;2022-08-01T11:29:13;8.13;;;4.80;;
62268;SDS011;56517;51.634;5.566;2022-08-01T11:34:15;6.82;;;4.80;;
62268;SDS011;56517;51.634;5.566;2022-08-01T11:39:16;6.18;;;4.53;;
62268;SDS011;56517;51.634;5.566;2022-08-01T11:44:21;6.57;;;4.35;;
62268;SDS011;56517;51.634;5.566;2022-08-01T11:49:27;6.88;;;5.07;;
62268;SDS011;56517;51.634;5.566;2022-08-01T11:54:28;6.43;;;4.68;;
62268;SDS011;56517;51.634;5.566;2022-08-01T11:59:34;6.45;;;4.50;;
62268;SDS011;56517;51.634;5.566;2022-08-01T12:04:46;6.03;;;4.93;;
62268;SDS011;56517;51.634;5.566;2022-08-01T12:09:47;6.13;;;4.50;;
62268;SDS011;56517;51.634;5.566;2022-08-01T12:14:53;8.52;;;4.82;;
62268;SDS011;56517;51.634;5.566;2022-08-01T12:19:55;9.25;;;5.05;;
62268;SDS011;56517;51.634;5.566;2022-08-01T12:24:55;7.13;;;5.10;;
62268;SDS011;56517;51.634;5.566;2022-08-01T12:29:56;9.77;;;5.43;;
62268;SDS011;56517;51.634;5.566;2022-08-01T12:35:00;5.80;;;4.72;;
62268;SDS011;56517;51.634;5.566;2022-08-01T12:40:02;4.57;;;4.18;;
62268;SDS011;56517;51.634;5.566;2022-08-01T12:45:09;7.88;;;4.60;;
62268;SDS011;56517;51.634;5.566;2022-08-01T12:50:13;7.55;;;4.97;;
62268;SDS011;56517;51.634;5.566;2022-08-01T12:55:15;7.95;;;4.85;;
62268;SDS011;56517;51.634;5.566;2022-08-01T13:00:17;7.93;;;4.93;;
62268;SDS011;56517;51.634;5.566;2022-08-01T13:05:19;9.57;;;5.00;;
62268;SDS011;56517;51.634;5.566;2022-08-01T13:10:25;6.20;;;4.00;;
62268;SDS011;56517;51.634;5.566;2022-08-01T13:15:27;8.43;;;5.13;;
62268;SDS011;56517;51.634;5.566;2022-08-01T13:20:31;8.18;;;4.88;;
62268;SDS011;56517;51.634;5.566;2022-08-01T13:25:32;7.00;;;4.50;;
62268;SDS011;56517;51.634;5.566;2022-08-01T13:30:32;7.45;;;4.45;;
62268;SDS011;56517;51.634;5.566;2022-08-01T13:35:34;8.10;;;4.72;;
62268;SDS011;56517;51.634;5.566;2022-08-01T13:40:35;7.88;;;5.25;;
62268;SDS011;56517;51.634;5.566;2022-08-01T13:45:35;5.95;;;4.72;;
62268;SDS011;56517;51.634;5.566;2022-08-01T13:50:37;6.55;;;4.30;;
62268;SDS011;56517;51.634;5.566;2022-08-01T13:55:38;9.07;;;5.05;;
62268;SDS011;56517;51.634;5.566;2022-08-01T14:00:39;6.47;;;4.72;;
62268;SDS011;56517;51.634;5.566;2022-08-01T14:05:40;8.65;;;4.70;;
62268;SDS011;56517;51.634;5.566;2022-08-01T14:10:41;10.27;;;4.72;;
62268;SDS011;56517;51.634;5.566;2022-08-01T14:15:42;6.32;;;4.05;;
62268;SDS011;56517;51.634;5.566;2022-08-01T14:20:44;9.23;;;4.93;;
62268;SDS011;56517;51.634;5.566;2022-08-01T14:25:44;8.13;;;4.97;;
62268;SDS011;56517;51.634;5.566;2022-08-01T14:30:45;6.13;;;4.32;;
62268;SDS011;56517;51.634;5.566;2022-08-01T14:35:47;7.32;;;4.32;;
62268;SDS011;56517;51.634;5.566;2022-08-01T14:40:47;11.27;;;4.72;;
62268;SDS011;56517;51.634;5.566;2022-08-01T14:45:48;4.45;;;4.00;;
62268;SDS011;56517;51.634;5.566;2022-08-01T14:50:50;9.43;;;4.95;;
62268;SDS011;56517;51.634;5.566;2022-08-01T14:55:50;7.90;;;4.72;;
62268;SDS011;56517;51.634;5.566;2022-08-01T15:00:51;8.00;;;4.38;;
62268;SDS011;56517;51.634;5.566;2022-08-01T15:05:53;5.57;;;4.40;;
62268;SDS011;56517;51.634;5.566;2022-08-01T15:10:53;12.18;;;4.60;;
62268;SDS011;56517;51.634;5.566;2022-08-01T15:15:54;8.90;;;4.80;;
62268;SDS011;56517;51.634;5.566;2022-08-01T15:20:59;11.35;;;5.10;;
62268;SDS011;56517;51.634;5.566;2022-08-01T15:25:59;9.40;;;4.97;;
62268;SDS011;56517;51.634;5.566;2022-08-01T15:31:00;6.70;;;4.20;;
62268;SDS011;56517;51.634;5.566;2022-08-01T15:36:02;8.30;;;4.22;;
62268;SDS011;56517;51.634;5.566;2022-08-01T15:41:02;8.18;;;4.70;;
62268;SDS011;56517;51.634;5.566;2022-08-01T15:46:03;10.10;;;4.65;;
62268;SDS011;56517;51.634;5.566;2022-08-01T15:51:05;9.88;;;4.90;;
62268;SDS011;56517;51.634;5.566;2022-08-01T15:56:06;7.97;;;4.78;;
62268;SDS011;56517;51.634;5.566;2022-08-01T16:01:06;7.35;;;4.72;;
62268;SDS011;56517;51.634;5.566;2022-08-01T16:06:08;6.70;;;4.43;;
62268;SDS011;56517;51.634;5.566;2022-08-01T16:11:09;6.63;;;4.43;;
62268;SDS011;56517;51.634;5.566;2022-08-01T16:16:10;8.95;;;4.55;;
62268;SDS011;56517;51.634;5.566;2022-08-01T16:21:12;6.93;;;4.40;;
62268;SDS011;56517;51.634;5.566;2022-08-01T16:26:13;6.68;;;4.60;;
62268;SDS011;56517;51.634;5.566;2022-08-01T16:31:13;8.13;;;4.32;;
62268;SDS011;56517;51.634;5.566;2022-08-01T16:36:15;7.40;;;4.57;;
62268;SDS011;56517;51.634;5.566;2022-08-01T16:41:16;6.22;;;4.07;;
62268;SDS011;56517;51.634;5.566;2022-08-01T16:46:17;8.82;;;4.25;;
62268;SDS011;56517;51.634;5.566;2022-08-01T16:51:19;6.85;;;4.28;;
62268;SDS011;56517;51.634;5.566;2022-08-01T16:56:19;6.95;;;4.00;;
62268;SDS011;56517;51.634;5.566;2022-08-01T17:01:20;7.38;;;3.90;;
62268;SDS011;56517;51.634;5.566;2022-08-01T17:06:22;5.82;;;3.95;;
62268;SDS011;56517;51.634;5.566;2022-08-01T17:11:22;8.43;;;3.85;;
62268;SDS011;56517;51.634;5.566;2022-08-01T17:16:23;6.22;;;3.50;;
62268;SDS011;56517;51.634;5.566;2022-08-01T17:21:25;6.47;;;4.40;;
62268;SDS011;56517;51.634;5.566;2022-08-01T17:26:25;5.70;;;3.75;;
62268;SDS011;56517;51.634;5.566;2022-08-01T17:31:26;8.23;;;3.92;;
62268;SDS011;56517;51.634;5.566;2022-08-01T17:36:28;6.82;;;4.03;;
62268;SDS011;56517;51.634;5.566;2022-08-01T17:41:28;6.88;;;4.00;;
62268;SDS011;56517;51.634;5.566;2022-08-01T17:46:29;9.70;;;3.65;;
62268;SDS011;56517;51.634;5.566;2022-08-01T17:51:31;7.25;;;4.22;;
62268;SDS011;56517;51.634;5.566;2022-08-01T17:56:31;9.38;;;3.65;;
62268;SDS011;56517;51.634;5.566;2022-08-01T18:01:32;6.55;;;4.05;;
62268;SDS011;56517;51.634;5.566;2022-08-01T18:06:34;6.57;;;3.58;;
62268;SDS011;56517;51.634;5.566;2022-08-01T18:11:34;8.65;;;4.63;;
62268;SDS011;56517;51.634;5.566;2022-08-01T18:16:35;8.15;;;4.55;;
62268;SDS011;56517;51.634;5.566;2022-08-01T18:21:37;5.57;;;3.67;;
62268;SDS011;56517;51.634;5.566;2022-08-01T18:26:37;7.45;;;4.03;;
62268;SDS011;56517;51.634;5.566;2022-08-01T18:31:38;5.80;;;4.07;;
62268;SDS011;56517;51.634;5.566;2022-08-01T18:36:40;7.53;;;3.55;;
62268;SDS011;56517;51.634;5.566;2022-08-01T18:41:40;10.73;;;5.25;;
62268;SDS011;56517;51.634;5.566;2022-08-01T18:46:41;4.38;;;3.03;;
62268;SDS011;56517;51.634;5.566;2022-08-01T18:51:43;6.00;;;3.50;;
62268;SDS011;56517;51.634;5.566;2022-08-01T18:56:44;8.95;;;3.97;;
62268;SDS011;56517;51.634;5.566;2022-08-01T19:01:45;6.20;;;3.42;;
62268;SDS011;56517;51.634;5.566;2022-08-01T19:06:46;7.90;;;3.53;;
62268;SDS011;56517;51.634;5.566;2022-08-01T19:11:47;4.93;;;3.55;;
62268;SDS011;56517;51.634;5.566;2022-08-01T19:16:48;6.15;;;4.18;;
62268;SDS011;56517;51.634;5.566;2022-08-01T19:21:50;5.90;;;3.70;;
62268;SDS011;56517;51.634;5.566;2022-08-01T19:26:51;7.00;;;4.00;;
62268;SDS011;56517;51.634;5.566;2022-08-01T19:31:52;7.85;;;4.00;;
62268;SDS011;56517;51.634;5.566;2022-08-01T19:36:57;6.70;;;3.80;;
62268;SDS011;56517;51.634;5.566;2022-08-01T19:41:58;4.82;;;3.85;;
62268;SDS011;56517;51.634;5.566;2022-08-01T19:46:58;7.72;;;3.85;;
62268;SDS011;56517;51.634;5.566;2022-08-01T19:52:02;6.38;;;3.72;;
62268;SDS011;56517;51.634;5.566;2022-08-01T19:57:05;8.32;;;4.75;;
62268;SDS011;56517;51.634;5.566;2022-08-01T20:02:06;7.03;;;4.07;;
62268;SDS011;56517;51.634;5.566;2022-08-01T20:07:08;6.75;;;4.15;;
62268;SDS011;56517;51.634;5.566;2022-08-01T20:12:09;11.95;;;4.38;;
62268;SDS011;56517;51.634;5.566;2022-08-01T20:17:10;6.35;;;4.03;;
62268;SDS011;56517;51.634;5.566;2022-08-01T20:22:12;5.65;;;4.75;;
62268;SDS011;56517;51.634;5.566;2022-08-01T20:27:13;8.52;;;4.63;;
62268;SDS011;56517;51.634;5.566;2022-08-01T20:32:13;8.70;;;4.30;;
62268;SDS011;56517;51.634;5.566;2022-08-01T20:37:15;6.63;;;4.22;;
62268;SDS011;56517;51.634;5.566;2022-08-01T20:42:16;6.57;;;4.50;;
62268;SDS011;56517;51.634;5.566;2022-08-01T20:47:17;6.30;;;4.80;;
62268;SDS011;56517;51.634;5.566;2022-08-01T20:52:19;6.55;;;4.68;;
62268;SDS011;56517;51.634;5.566;2022-08-01T20:57:20;8.68;;;4.88;;
62268;SDS011;56517;51.634;5.566;2022-08-01T21:02:23;6.53;;;4.25;;
62268;SDS011;56517;51.634;5.566;2022-08-01T21:07:28;8.45;;;5.10;;
62268;SDS011;56517;51.634;5.566;2022-08-01T21:12:33;8.30;;;4.90;;
62268;SDS011;56517;51.634;5.566;2022-08-01T21:17:39;8.32;;;5.03;;
62268;SDS011;56517;51.634;5.566;2022-08-01T21:22:47;7.40;;;4.75;;
62268;SDS011;56517;51.634;5.566;2022-08-01T21:27:50;8.10;;;4.68;;
62268;SDS011;56517;51.634;5.566;2022-08-01T21:32:50;6.93;;;4.32;;
62268;SDS011;56517;51.634;5.566;2022-08-01T21:37:52;9.23;;;5.07;;
62268;SDS011;56517;51.634;5.566;2022-08-01T21:42:56;7.07;;;5.00;;
62268;SDS011;56517;51.634;5.566;2022-08-01T21:47:58;8.48;;;4.72;;
62268;SDS011;56517;51.634;5.566;2022-08-01T21:53:06;8.43;;;5.20;;
62268;SDS011;56517;51.634;5.566;2022-08-01T21:58:13;8.45;;;5.00;;
62268;SDS011;56517;51.634;5.566;2022-08-01T22:03:19;8.95;;;5.22;;
62268;SDS011;56517;51.634;5.566;2022-08-01T22:08:28;7.57;;;4.85;;
62268;SDS011;56517;51.634;5.566;2022-08-01T22:13:28;9.60;;;5.75;;
62268;SDS011;56517;51.634;5.566;2022-08-01T22:18:29;7.68;;;5.57;;
62268;SDS011;56517;51.634;5.566;2022-08-01T22:23:34;7.03;;;5.85;;
62268;SDS011;56517;51.634;5.566;2022-08-01T22:28:35;9.32;;;5.70;;
62268;SDS011;56517;51.634;5.566;2022-08-01T22:33:37;10.02;;;5.63;;
62268;SDS011;56517;51.634;5.566;2022-08-01T22:38:39;10.13;;;6.50;;
62268;SDS011;56517;51.634;5.566;2022-08-01T22:43:40;9.02;;;5.43;;
62268;SDS011;56517;51.634;5.566;2022-08-01T22:48:43;7.95;;;5.40;;
62268;SDS011;56517;51.634;5.566;2022-08-01T22:53:47;8.73;;;6.13;;
62268;SDS011;56517;51.634;5.566;2022-08-01T22:58:49;6.68;;;5.03;;
62268;SDS011;56517;51.634;5.566;2022-08-01T23:03:51;7.32;;;6.35;;
62268;SDS011;56517;51.634;5.566;2022-08-01T23:08:55;9.10;;;6.32;;
62268;SDS011;56517;51.634;5.566;2022-08-01T23:13:57;8.60;;;6.97;;
62268;SDS011;56517;51.634;5.566;2022-08-01T23:18:57;7.53;;;6.30;;
62268;SDS011;56517;51.634;5.566;2022-08-01T23:23:59;9.35;;;6.88;;
62268;SDS011;56517;51.634;5.566;2022-08-01T23:29:00;12.52;;;6.75;;
62268;SDS011;56517;51.634;5.566;2022-08-01T23:34:01;11.48;;;6.20;;
62268;SDS011;56517;51.634;5.566;2022-08-01T23:39:03;9.93;;;6.80;;
62268;SDS011;56517;51.634;5.566;2022-08-01T23:44:04;10.05;;;6.88;;
62268;SDS011;56517;51.634;5.566;2022-08-01T23:49:04;13.93;;;6.70;;
62268;SDS011;56517;51.634;5.566;2022-08-01T23:54:06;13.70;;;7.43;;
62268;SDS011;56517;51.634;5.566;2022-08-01T23:59:07;13.15;;;7.00;;
